Time;durP1;ratioP1;P1;durP2;ratioP2;P2;SDS_P1;SDS_P2;PMS_P1;PMS_P2;Temp;Humidity;BMP_temperature;BMP_pressure;BME280_temperature;BME280_humidity;BME280_pressure;Samples;Min_cycle;Max_cycle;Signal;HPM_P1;HPM_P2
2023/01/20 00:01:26;;;;;;;55.20;25.08;;;0.60;99.90;;;;;;5027922;28;20513;-71
2023/01/20 00:03:54;;;;;;;55.75;24.42;;;0.50;99.90;;;;;;5019664;28;20437;-71
2023/01/20 00:06:22;;;;;;;59.95;25.70;;;0.50;99.90;;;;;;5060327;28;20047;-71
2023/01/20 00:08:54;;;;;;;55.92;26.33;;;0.60;99.90;;;;;;5020711;28;20506;-71
2023/01/20 00:11:20;;;;;;;54.80;27.05;;;0.60;99.90;;;;;;5031479;28;20039;-71
2023/01/20 00:13:47;;;;;;;60.28;26.88;;;0.50;99.90;;;;;;5006259;28;20414;-71
2023/01/20 00:16:14;;;;;;;58.60;24.98;;;0.50;99.90;;;;;;5041450;28;20041;-71
2023/01/20 00:18:41;;;;;;;63.30;26.80;;;0.60;99.90;;;;;;5019796;28;20074;-71
2023/01/20 00:21:12;;;;;;;55.67;24.70;;;0.60;99.90;;;;;;5016491;28;20048;-71
2023/01/20 00:23:39;;;;;;;58.33;27.13;;;0.50;99.90;;;;;;5037846;28;20484;-71
2023/01/20 00:26:08;;;;;;;57.92;25.80;;;0.50;99.90;;;;;;5032657;28;20037;-72
2023/01/20 00:28:36;;;;;;;52.75;23.65;;;0.50;99.90;;;;;;5033325;28;20537;-72
2023/01/20 00:31:09;;;;;;;56.17;25.83;;;0.40;99.90;;;;;;5008614;28;20067;-72
2023/01/20 00:33:36;;;;;;;55.58;22.77;;;0.40;99.90;;;;;;5049891;28;20465;-71
2023/01/20 00:36:02;;;;;;;52.70;23.65;;;0.40;99.90;;;;;;5039426;28;20532;-71
2023/01/20 00:38:29;;;;;;;60.53;23.92;;;0.40;99.90;;;;;;5021765;28;20098;-70
2023/01/20 00:40:56;;;;;;;54.08;24.27;;;0.40;99.90;;;;;;5026027;28;20109;-71
2023/01/20 00:43:23;;;;;;;64.55;25.00;;;0.30;99.90;;;;;;5023376;28;20040;-71
2023/01/20 00:45:49;;;;;;;51.75;25.15;;;0.40;99.90;;;;;;5012921;28;20710;-71
2023/01/20 00:48:16;;;;;;;87.55;29.63;;;0.40;99.90;;;;;;5039878;28;20045;-71
2023/01/20 00:50:43;;;;;;;55.63;24.33;;;0.40;99.90;;;;;;5043337;28;20056;-71
2023/01/20 00:53:09;;;;;;;50.17;23.35;;;0.40;99.90;;;;;;5045027;28;20055;-71
2023/01/20 00:55:36;;;;;;;55.75;26.50;;;0.40;99.90;;;;;;5025134;28;20541;-71
2023/01/20 00:58:03;;;;;;;57.15;25.27;;;0.40;99.90;;;;;;5025235;28;20041;-71
2023/01/20 01:00:30;;;;;;;59.08;26.02;;;0.40;99.90;;;;;;5038580;28;20256;-71
2023/01/20 01:02:57;;;;;;;62.55;25.50;;;0.40;99.90;;;;;;5013385;28;20146;-71
2023/01/20 01:05:24;;;;;;;53.80;25.45;;;0.40;99.90;;;;;;5037234;28;20041;-71
2023/01/20 01:07:50;;;;;;;49.05;23.45;;;0.40;99.90;;;;;;5025447;28;21091;-71
2023/01/20 01:10:17;;;;;;;54.40;25.40;;;0.40;99.90;;;;;;5024787;28;20198;-71
2023/01/20 01:12:44;;;;;;;61.95;25.52;;;0.40;99.90;;;;;;5026267;28;20048;-71
2023/01/20 01:15:11;;;;;;;54.03;26.10;;;0.50;99.90;;;;;;5027276;28;20060;-71
2023/01/20 01:17:38;;;;;;;46.83;23.75;;;0.50;99.90;;;;;;5023108;28;20037;-71
2023/01/20 01:20:05;;;;;;;53.33;25.08;;;0.50;99.90;;;;;;5036904;28;20037;-71
2023/01/20 01:22:32;;;;;;;52.00;25.15;;;0.50;99.90;;;;;;5036774;28;20029;-71
2023/01/20 01:24:58;;;;;;;56.80;25.55;;;0.50;99.90;;;;;;5044834;28;20136;-71
2023/01/20 01:27:27;;;;;;;60.30;26.33;;;0.50;99.90;;;;;;5024327;28;20048;-71
2023/01/20 01:29:54;;;;;;;54.42;26.42;;;0.60;99.90;;;;;;5020963;28;20132;-71
2023/01/20 01:32:21;;;;;;;54.60;25.42;;;0.70;99.90;;;;;;5023036;28;20610;-71
2023/01/20 01:34:48;;;;;;;53.47;25.80;;;0.60;99.90;;;;;;5024476;28;20044;-71
2023/01/20 01:37:15;;;;;;;58.25;24.83;;;0.60;99.90;;;;;;5025130;28;20592;-71
2023/01/20 01:39:41;;;;;;;68.75;28.23;;;0.60;99.90;;;;;;5039938;28;20037;-71
2023/01/20 01:42:13;;;;;;;64.95;28.00;;;0.60;99.90;;;;;;5029427;28;20072;-70
2023/01/20 01:45:10;;;;;;;51.63;25.58;;;0.60;99.90;;;;;;5020668;28;20701;-71
2023/01/20 01:47:51;;;;;;;53.17;25.13;;;0.50;99.90;;;;;;5016954;28;20036;-71
2023/01/20 01:50:23;;;;;;;61.70;26.83;;;0.60;99.90;;;;;;5040304;28;20278;-71
2023/01/20 01:52:52;;;;;;;53.35;25.70;;;0.50;99.90;;;;;;5023018;28;20489;-71
2023/01/20 01:55:24;;;;;;;49.40;27.83;;;0.50;99.90;;;;;;5025681;28;20301;-71
2023/01/20 01:57:52;;;;;;;53.28;27.50;;;0.50;99.90;;;;;;5015931;28;20063;-71
2023/01/20 02:00:19;;;;;;;57.83;26.33;;;0.50;99.90;;;;;;5038362;28;20269;-71
2023/01/20 02:02:47;;;;;;;58.00;26.85;;;0.50;99.90;;;;;;5031351;28;20041;-71
2023/01/20 02:05:15;;;;;;;59.28;26.02;;;0.50;99.90;;;;;;5031604;28;20430;-71
2023/01/20 02:07:46;;;;;;;47.90;24.67;;;0.50;99.90;;;;;;5024133;28;20525;-71
2023/01/20 02:10:13;;;;;;;60.95;27.02;;;0.40;99.90;;;;;;5014382;28;20044;-71
2023/01/20 02:12:42;;;;;;;54.20;25.33;;;0.40;99.90;;;;;;5035633;28;20052;-69
2023/01/20 02:15:09;;;;;;;51.85;25.23;;;0.40;99.90;;;;;;5025899;28;20047;-68
2023/01/20 02:18:04;;;;;;;48.72;25.42;;;0.40;99.90;;;;;;5037234;28;20413;-69
2023/01/20 02:21:29;;;;;;;58.95;27.75;;;0.30;99.90;;;;;;5021197;28;20055;-70
2023/01/20 02:24:11;;;;;;;55.83;26.58;;;0.20;99.90;;;;;;4992031;28;20045;-71
2023/01/20 02:27:18;;;;;;;57.60;27.80;;;0.10;99.90;;;;;;5028120;28;20124;-71
2023/01/20 02:30:17;;;;;;;57.58;26.88;;;0.10;99.90;;;;;;5027587;28;20048;-71
2023/01/20 02:33:02;;;;;;;67.40;27.85;;;0.00;99.90;;;;;;5023058;28;20041;-71
2023/01/20 02:35:38;;;;;;;63.85;27.52;;;0.00;99.90;;;;;;5030244;28;21288;-71
2023/01/20 02:38:15;;;;;;;62.00;27.25;;;-0.10;99.90;;;;;;5049170;28;20063;-71
2023/01/20 02:40:49;;;;;;;67.55;27.65;;;-0.10;99.90;;;;;;5023068;28;20041;-71
2023/01/20 02:43:18;;;;;;;57.80;26.90;;;-0.10;99.90;;;;;;5050695;28;20102;-71
2023/01/20 02:45:58;;;;;;;55.75;26.85;;;0.00;99.90;;;;;;5016239;28;20573;-71
2023/01/20 02:48:45;;;;;;;63.63;26.85;;;0.00;99.90;;;;;;5027230;28;20082;-71
2023/01/20 02:51:16;;;;;;;58.13;27.33;;;0.10;99.90;;;;;;5039797;28;20422;-71
2023/01/20 02:53:48;;;;;;;60.47;28.25;;;0.10;99.90;;;;;;5020907;28;20041;-68
2023/01/20 02:56:18;;;;;;;58.55;28.23;;;0.20;99.90;;;;;;5027682;28;20037;-69
2023/01/20 02:59:07;;;;;;;62.08;27.60;;;0.30;99.90;;;;;;5043568;28;20150;-69
2023/01/20 03:01:41;;;;;;;57.38;27.02;;;0.30;99.90;;;;;;5031327;28;20036;-70
2023/01/20 03:04:11;;;;;;;64.20;30.10;;;0.20;99.90;;;;;;5031034;28;20136;-71
2023/01/20 03:06:45;;;;;;;68.30;32.05;;;0.10;99.90;;;;;;5038482;28;20158;-71
2023/01/20 03:09:19;;;;;;;65.78;27.92;;;0.00;99.90;;;;;;5024187;28;20507;-71
2023/01/20 03:11:53;;;;;;;66.35;27.85;;;-0.10;99.90;;;;;;5035664;28;20060;-71
2023/01/20 03:14:20;;;;;;;68.88;30.27;;;-0.10;99.90;;;;;;5042436;28;20044;-71
2023/01/20 03:16:49;;;;;;;70.60;30.10;;;0.00;99.90;;;;;;5027397;28;20059;-70
2023/01/20 03:19:17;;;;;;;60.92;29.08;;;0.00;99.90;;;;;;5034075;28;20360;-71
2023/01/20 03:21:47;;;;;;;66.70;30.02;;;0.00;99.90;;;;;;5024205;28;20074;-71
2023/01/20 03:24:14;;;;;;;69.45;30.35;;;-0.10;99.90;;;;;;5034386;28;20072;-71
2023/01/20 03:26:41;;;;;;;67.80;29.98;;;-0.10;99.90;;;;;;5034141;28;20044;-71
2023/01/20 03:29:14;;;;;;;65.03;30.52;;;-0.10;99.90;;;;;;5027343;28;20044;-71
2023/01/20 03:31:51;;;;;;;72.45;30.00;;;-0.30;99.90;;;;;;5020625;28;20041;-71
2023/01/20 03:34:21;;;;;;;67.88;29.48;;;-0.40;99.90;;;;;;5021004;28;20048;-71
2023/01/20 03:36:48;;;;;;;75.20;33.13;;;-0.70;99.90;;;;;;5070507;23;20394;-69
2023/01/20 03:39:16;;;;;;;74.90;34.15;;;-0.80;99.90;;;;;;5086108;28;20075;-70
2023/01/20 03:42:22;;;;;;;75.90;33.42;;;-0.80;99.90;;;;;;5078431;28;20040;-69
2023/01/20 03:45:07;;;;;;;86.10;34.95;;;-0.90;99.90;;;;;;5077478;28;20397;-69
2023/01/20 03:47:45;;;;;;;;;;;-0.90;99.90;;;;;;5062596;28;20051;-69
2023/01/20 03:50:15;;;;;;;88.43;34.20;;;-0.80;99.90;;;;;;5068312;28;19963;-69
2023/01/20 03:52:51;;;;;;;85.25;35.00;;;-0.80;99.90;;;;;;5065024;28;20036;-69
2023/01/20 03:55:43;;;;;;;78.85;34.50;;;-0.80;99.90;;;;;;5061246;28;20048;-69
2023/01/20 03:58:21;;;;;;;81.85;35.92;;;-0.80;99.90;;;;;;5062995;28;20643;-69
2023/01/20 04:00:49;;;;;;;82.35;34.35;;;-0.80;99.90;;;;;;5052883;28;20190;-69
2023/01/20 04:03:25;;;;;;;83.70;35.70;;;-0.80;99.90;;;;;;5058235;28;20033;-71
2023/01/20 04:05:54;;;;;;;88.85;36.05;;;-0.80;99.90;;;;;;5063552;28;21234;-71
2023/01/20 04:08:24;;;;;;;88.13;38.55;;;-0.70;99.90;;;;;;5066894;28;20044;-69
2023/01/20 04:10:54;;;;;;;80.80;34.00;;;-0.70;99.90;;;;;;5045163;28;20040;-69
2023/01/20 04:13:20;;;;;;;81.40;36.28;;;-0.60;99.90;;;;;;5065978;28;20049;-69
2023/01/20 04:15:47;;;;;;;85.63;36.97;;;-0.70;99.90;;;;;;5049539;28;20032;-71
2023/01/20 04:18:20;;;;;;;83.55;36.00;;;-0.60;99.90;;;;;;5044733;28;20147;-71
2023/01/20 04:20:50;;;;;;;71.88;32.40;;;-0.50;99.90;;;;;;5063132;28;20041;-71
2023/01/20 04:23:40;;;;;;;73.30;31.92;;;-0.50;99.90;;;;;;5052041;28;20144;-71
2023/01/20 04:26:07;;;;;;;85.20;33.20;;;-0.50;99.90;;;;;;5070834;28;20050;-71
2023/01/20 04:28:34;;;;;;;74.65;34.90;;;-0.50;99.90;;;;;;5051779;28;20032;-71
2023/01/20 04:31:00;;;;;;;75.57;36.45;;;-0.50;99.90;;;;;;5052576;28;20039;-71
2023/01/20 04:33:27;;;;;;;80.60;34.95;;;-0.50;99.90;;;;;;5070167;28;20293;-71
2023/01/20 04:35:54;;;;;;;85.93;32.80;;;-0.60;99.90;;;;;;5058863;28;20051;-71
2023/01/20 04:38:20;;;;;;;67.75;32.35;;;-0.60;99.90;;;;;;5069867;28;20054;-71
2023/01/20 04:40:47;;;;;;;67.93;30.73;;;-0.60;99.90;;;;;;5049421;28;20124;-71
2023/01/20 04:43:14;;;;;;;77.28;33.03;;;-0.60;99.90;;;;;;5065683;28;20046;-71
2023/01/20 04:45:41;;;;;;;74.78;33.58;;;-0.60;99.90;;;;;;5059752;28;20054;-71
2023/01/20 04:48:08;;;;;;;67.72;32.30;;;-0.50;99.90;;;;;;5048110;28;20047;-71
2023/01/20 04:50:39;;;;;;;64.85;30.45;;;-0.40;99.90;;;;;;5045319;28;20356;-71
2023/01/20 04:53:10;;;;;;;60.08;30.38;;;-0.40;99.90;;;;;;5070470;28;20047;-71
2023/01/20 04:55:36;;;;;;;63.40;30.27;;;-0.30;99.90;;;;;;5066548;28;20036;-71
2023/01/20 04:58:03;;;;;;;62.90;30.08;;;-0.20;99.90;;;;;;5068791;28;20348;-71
2023/01/20 05:00:30;;;;;;;58.05;28.80;;;-0.20;99.90;;;;;;5062569;28;20188;-71
2023/01/20 05:02:57;;;;;;;58.72;29.20;;;-0.10;99.90;;;;;;5069199;28;20052;-71
2023/01/20 05:05:24;;;;;;;59.78;29.80;;;-0.10;99.90;;;;;;5062082;28;20048;-71
2023/01/20 05:07:52;;;;;;;55.17;30.40;;;0.00;99.90;;;;;;5071198;28;20059;-71
2023/01/20 05:10:19;;;;;;;70.63;33.28;;;-0.10;99.90;;;;;;5060790;28;20048;-71
2023/01/20 05:12:46;;;;;;;69.93;34.75;;;0.00;99.90;;;;;;5059158;28;20050;-71
2023/01/20 05:15:13;;;;;;;83.22;37.20;;;0.10;99.90;;;;;;5040304;28;20078;-71
2023/01/20 05:17:40;;;;;;;75.15;35.85;;;0.10;99.90;;;;;;5063938;28;20437;-71
2023/01/20 05:20:08;;;;;;;63.10;33.45;;;0.20;99.90;;;;;;5069419;28;20130;-71
2023/01/20 05:22:35;;;;;;;68.15;35.38;;;0.20;99.90;;;;;;5040998;28;20063;-71
2023/01/20 05:25:01;;;;;;;58.78;33.35;;;0.30;99.90;;;;;;5061976;28;20043;-71
2023/01/20 05:27:28;;;;;;;58.45;31.20;;;0.20;99.90;;;;;;5043827;28;20498;-69
2023/01/20 05:29:54;;;;;;;64.60;32.20;;;0.30;99.90;;;;;;5063934;28;20044;-71
2023/01/20 05:32:21;;;;;;;65.93;32.45;;;0.30;99.90;;;;;;5061193;28;20036;-71
2023/01/20 05:34:48;;;;;;;61.53;33.08;;;0.30;99.90;;;;;;5040138;28;20040;-69
2023/01/20 05:37:18;;;;;;;58.70;32.08;;;0.30;99.90;;;;;;5062517;28;20039;-71
2023/01/20 05:39:44;;;;;;;57.10;30.38;;;0.30;99.90;;;;;;5040203;28;20045;-71
2023/01/20 05:42:11;;;;;;;66.32;31.17;;;0.30;99.90;;;;;;5058839;28;20051;-71
2023/01/20 05:44:38;;;;;;;72.43;34.00;;;0.40;99.90;;;;;;5035647;28;20043;-71
2023/01/20 05:47:04;;;;;;;70.15;32.10;;;0.30;99.90;;;;;;5065841;28;20458;-71
2023/01/20 05:49:31;;;;;;;59.90;32.03;;;0.30;99.90;;;;;;5061157;28;20299;-71
2023/01/20 05:51:58;;;;;;;70.40;32.67;;;0.30;99.90;;;;;;5033570;28;20707;-71
2023/01/20 05:54:25;;;;;;;64.43;32.22;;;0.20;99.90;;;;;;5062316;28;20406;-69
2023/01/20 05:56:51;;;;;;;65.80;31.40;;;0.20;99.90;;;;;;5044532;28;20051;-71
2023/01/20 05:59:18;;;;;;;64.88;33.42;;;0.20;99.90;;;;;;5062592;28;20044;-71
2023/01/20 06:01:45;;;;;;;64.70;33.13;;;0.20;99.90;;;;;;5053006;28;20546;-70
2023/01/20 06:04:11;;;;;;;63.30;31.17;;;0.10;99.90;;;;;;5057146;28;20487;-71
2023/01/20 06:06:38;;;;;;;58.85;32.10;;;0.20;99.90;;;;;;5060168;28;20487;-71
2023/01/20 06:09:05;;;;;;;58.22;30.85;;;0.20;99.90;;;;;;5048254;28;20398;-71
2023/01/20 06:11:32;;;;;;;60.63;30.55;;;0.20;99.90;;;;;;5038991;28;20037;-71
2023/01/20 06:13:59;;;;;;;59.50;31.05;;;0.20;99.90;;;;;;5043582;28;20683;-71
2023/01/20 06:16:25;;;;;;;64.35;33.03;;;0.00;99.90;;;;;;5037924;28;20044;-71
2023/01/20 06:18:52;;;;;;;62.30;34.20;;;-0.20;99.90;;;;;;5063584;28;20036;-71
2023/01/20 06:21:19;;;;;;;61.22;34.47;;;-0.50;99.90;;;;;;5067537;28;20498;-70
2023/01/20 06:23:46;;;;;;;71.85;35.03;;;-0.60;99.90;;;;;;5059549;28;20037;-70
2023/01/20 06:26:13;;;;;;;75.43;38.83;;;-0.80;99.90;;;;;;5070243;28;20048;-71
2023/01/20 06:28:40;;;;;;;77.65;39.33;;;-0.90;99.90;;;;;;5078028;28;20050;-70
2023/01/20 06:31:10;;;;;;;78.90;39.38;;;-0.90;99.90;;;;;;5059794;28;20222;-70
2023/01/20 06:33:37;;;;;;;78.70;39.20;;;-0.80;99.90;;;;;;5047538;28;20135;-70
2023/01/20 06:36:04;;;;;;;78.07;38.53;;;-1.00;99.90;;;;;;5062188;28;20047;-70
2023/01/20 06:38:33;;;;;;;71.82;36.78;;;-1.20;99.90;;;;;;5064014;28;20056;-71
2023/01/20 06:41:05;;;;;;;72.10;35.65;;;-1.40;99.90;;;;;;5047159;28;20036;-71
2023/01/20 06:43:33;;;;;;;85.03;40.60;;;-1.50;99.90;;;;;;5061513;28;20051;-70
2023/01/20 06:46:02;;;;;;;97.50;41.67;;;-1.50;99.90;;;;;;5042751;28;20068;-70
2023/01/20 06:48:29;;;;;;;103.95;43.45;;;-1.60;99.90;;;;;;5067597;28;20051;-71
2023/01/20 06:51:02;;;;;;;89.60;39.65;;;-1.50;99.90;;;;;;5064795;28;20045;-70
2023/01/20 06:53:29;;;;;;;116.97;51.30;;;-1.50;99.90;;;;;;5043018;28;20094;-71
2023/01/20 06:55:57;;;;;;;109.45;46.83;;;-1.40;99.90;;;;;;5037969;28;20047;-71
2023/01/20 06:58:25;;;;;;;83.70;37.63;;;-1.30;99.90;;;;;;5066771;28;20079;-69
2023/01/20 07:00:52;;;;;;;88.80;37.47;;;-1.30;99.90;;;;;;5058972;28;20047;-69
2023/01/20 07:03:19;;;;;;;78.40;35.25;;;-1.30;99.90;;;;;;5042862;28;20672;-68
2023/01/20 07:05:58;;;;;;;74.95;31.27;;;-1.20;99.90;;;;;;5046291;28;20040;-69
2023/01/20 07:08:25;;;;;;;76.90;35.90;;;-1.20;99.90;;;;;;5046653;28;20514;-69
2023/01/20 07:10:52;;;;;;;70.60;32.08;;;-1.10;99.90;;;;;;5046702;28;20048;-68
2023/01/20 07:13:19;;;;;;;78.20;35.92;;;-1.00;99.90;;;;;;5060177;28;20055;-69
2023/01/20 07:15:45;;;;;;;75.63;35.50;;;-1.00;99.90;;;;;;5067800;28;20533;-69
2023/01/20 07:18:12;;;;;;;93.60;37.78;;;-1.00;99.90;;;;;;5048228;28;20519;-71
2023/01/20 07:20:39;;;;;;;138.13;60.63;;;-0.90;99.90;;;;;;5043704;28;20060;-70
2023/01/20 07:23:06;;;;;;;88.32;40.83;;;-0.80;99.90;;;;;;5051072;28;20163;-72
2023/01/20 07:25:32;;;;;;;87.70;37.05;;;-0.90;99.90;;;;;;5065799;28;20036;-71
2023/01/20 07:27:59;;;;;;;71.90;34.90;;;-0.80;99.90;;;;;;5062264;28;20048;-71
2023/01/20 07:30:26;;;;;;;73.70;35.03;;;-0.80;99.90;;;;;;5066487;28;20035;-71
2023/01/20 07:32:53;;;;;;;66.43;32.85;;;-0.80;99.90;;;;;;5057086;28;20047;-71
2023/01/20 07:35:19;;;;;;;70.72;34.30;;;-0.90;99.90;;;;;;5064368;28;20067;-71
2023/01/20 07:37:46;;;;;;;77.63;34.42;;;-0.80;99.90;;;;;;5058423;28;20238;-71
2023/01/20 07:40:13;;;;;;;77.32;37.33;;;-0.80;99.90;;;;;;5068963;28;20453;-71
2023/01/20 07:42:40;;;;;;;74.72;35.65;;;-0.60;99.90;;;;;;5045217;28;20036;-71
2023/01/20 07:45:07;;;;;;;78.88;37.67;;;-0.60;99.90;;;;;;5062208;28;20048;-71
2023/01/20 07:47:33;;;;;;;63.95;32.15;;;-0.60;99.90;;;;;;5061028;28;20046;-70
2023/01/20 07:50:00;;;;;;;66.88;32.40;;;-0.70;99.90;;;;;;5047043;28;20070;-71
2023/01/20 07:52:27;;;;;;;64.85;31.73;;;-0.80;99.90;;;;;;5059013;28;20044;-72
2023/01/20 07:54:53;;;;;;;60.50;30.70;;;-0.70;99.90;;;;;;5061642;28;20710;-70
2023/01/20 07:57:20;;;;;;;63.30;30.70;;;-0.70;99.90;;;;;;5048676;28;20087;-70
2023/01/20 07:59:47;;;;;;;69.22;30.70;;;-0.70;99.90;;;;;;5064614;28;20036;-70
2023/01/20 08:02:13;;;;;;;60.30;30.00;;;-0.70;99.90;;;;;;5063831;28;20074;-70
2023/01/20 08:04:40;;;;;;;62.47;32.20;;;-0.70;99.90;;;;;;5065702;28;20059;-70
2023/01/20 08:07:07;;;;;;;67.22;32.90;;;-0.60;99.90;;;;;;5067661;28;21097;-70
2023/01/20 08:09:33;;;;;;;74.07;35.00;;;-0.40;99.90;;;;;;5047947;28;20328;-70
2023/01/20 08:12:01;;;;;;;65.93;33.08;;;-0.40;99.90;;;;;;5040552;28;20040;-70
2023/01/20 08:14:27;;;;;;;57.90;31.63;;;-0.40;99.90;;;;;;5036052;28;20045;-70
2023/01/20 08:16:54;;;;;;;67.60;29.67;;;-0.40;99.90;;;;;;5059421;28;20446;-70
2023/01/20 08:19:21;;;;;;;61.95;30.73;;;-0.30;99.90;;;;;;5068498;28;20051;-70
2023/01/20 08:21:48;;;;;;;55.53;31.58;;;-0.30;99.90;;;;;;5053380;28;20120;-71
2023/01/20 08:24:15;;;;;;;54.10;29.92;;;-0.30;99.90;;;;;;5044862;28;20094;-70
2023/01/20 08:26:41;;;;;;;51.60;28.40;;;-0.30;99.90;;;;;;5057872;28;20461;-69
2023/01/20 08:29:09;;;;;;;58.47;31.65;;;-0.30;99.90;;;;;;5062802;28;20074;-71
2023/01/20 08:31:36;;;;;;;58.90;32.33;;;-0.20;99.90;;;;;;5041298;28;20560;-70
2023/01/20 08:34:03;;;;;;;80.72;42.53;;;-0.10;99.90;;;;;;5065411;28;20078;-70
2023/01/20 08:36:32;;;;;;;53.42;36.40;;;0.00;99.90;;;;;;5045608;28;20048;-69
2023/01/20 08:39:01;;;;;;;97.65;56.15;;;0.00;99.90;;;;;;5066857;28;20071;-70
2023/01/20 08:41:31;;;;;;;60.17;38.70;;;0.10;99.90;;;;;;5040331;28;20110;-70
2023/01/20 08:44:00;;;;;;;69.60;36.83;;;0.20;99.90;;;;;;5043499;28;20419;-70
2023/01/20 08:46:27;;;;;;;49.80;32.88;;;0.20;99.90;;;;;;5065599;28;20040;-70
2023/01/20 08:48:54;;;;;;;53.75;34.65;;;0.30;99.90;;;;;;5066827;28;20051;-70
2023/01/20 08:51:25;;;;;;;48.92;33.78;;;0.40;99.90;;;;;;5050027;28;20044;-70
2023/01/20 08:53:52;;;;;;;48.78;32.60;;;0.30;99.90;;;;;;5051906;28;20048;-72
2023/01/20 08:56:20;;;;;;;47.55;33.15;;;0.30;99.90;;;;;;5046880;28;20044;-70
2023/01/20 08:58:47;;;;;;;49.97;30.55;;;0.30;99.90;;;;;;5046811;28;20458;-69
2023/01/20 09:01:18;;;;;;;55.80;32.17;;;0.30;99.90;;;;;;5061803;28;20344;-70
2023/01/20 09:03:45;;;;;;;48.45;30.70;;;0.20;99.90;;;;;;5059535;28;20040;-70
2023/01/20 09:06:35;;;;;;;44.33;29.83;;;0.20;99.90;;;;;;5051881;28;20040;-69
2023/01/20 09:09:02;;;;;;;48.42;31.42;;;0.30;99.90;;;;;;5045332;28;20479;-70
2023/01/20 09:11:30;;;;;;;45.60;30.20;;;0.40;99.90;;;;;;5045042;28;20086;-70
2023/01/20 09:13:57;;;;;;;39.20;29.80;;;0.80;99.90;;;;;;5062290;28;20437;-70
2023/01/20 09:16:24;;;;;;;36.63;29.45;;;1.30;99.90;;;;;;5064782;28;20071;-70
2023/01/20 09:18:51;;;;;;;33.33;29.48;;;1.60;99.90;;;;;;5060136;28;20079;-70
2023/01/20 09:21:17;;;;;;;36.38;31.88;;;1.90;99.90;;;;;;5055086;28;20040;-70
2023/01/20 09:23:46;;;;;;;38.03;33.95;;;2.50;99.90;;;;;;5055133;28;20040;-70
2023/01/20 09:26:14;;;;;;;43.28;35.33;;;2.70;99.90;;;;;;5068155;28;20048;-70
2023/01/20 09:29:08;;;;;;;39.20;34.75;;;2.40;99.90;;;;;;5069443;28;20054;-70
2023/01/20 09:31:56;;;;;;;44.50;37.50;;;2.40;99.90;;;;;;5066389;28;20044;-70
2023/01/20 09:34:27;;;;;;;44.50;38.28;;;2.40;99.90;;;;;;5062446;28;20040;-70
2023/01/20 09:43:52;;;;;;;42.80;38.38;;;2.70;99.90;;;;;;5069448;28;20542;-70
2023/01/20 09:45:55;;;;;;;39.15;35.08;;;4.20;99.90;;;;;;5030704;28;20048;-71
2023/01/20 09:54:42;;;;;;;47.55;41.13;;;4.70;99.90;;;;;;5042069;28;20047;-70
2023/01/20 09:57:11;;;;;;;46.40;41.47;;;4.50;99.90;;;;;;5042350;28;20046;-70
2023/01/20 09:59:54;;;;;;;48.65;42.92;;;4.20;99.90;;;;;;5044707;28;20512;-70
2023/01/20 10:02:25;;;;;;;53.88;48.70;;;4.20;99.90;;;;;;5062297;28;20044;-70
2023/01/20 10:04:57;;;;;;;52.53;42.67;;;4.20;99.90;;;;;;5068382;28;20575;-70
2023/01/20 10:07:42;;;;;;;45.40;40.60;;;4.30;99.90;;;;;;5067863;28;20105;-70
2023/01/20 10:10:41;;;;;;;44.30;39.90;;;4.50;99.90;;;;;;5066601;28;20044;-70
2023/01/20 10:13:18;;;;;;;43.58;39.17;;;4.70;99.90;;;;;;5070640;28;20046;-70
2023/01/20 10:15:53;;;;;;;44.65;40.20;;;4.70;99.90;;;;;;5045901;28;20044;-70
2023/01/20 10:18:42;;;;;;;47.72;42.83;;;4.50;99.90;;;;;;5053717;28;20510;-69
2023/01/20 10:21:34;;;;;;;61.22;45.47;;;4.70;99.90;;;;;;5045784;28;20637;-69
2023/01/20 10:24:12;;;;;;;50.58;44.88;;;4.90;99.90;;;;;;5044398;28;20056;-69
2023/01/20 10:26:49;;;;;;;47.72;42.60;;;5.20;99.90;;;;;;5037672;28;20040;-69
2023/01/20 10:29:41;;;;;;;47.60;42.88;;;5.00;99.90;;;;;;5044129;28;20040;-69
2023/01/20 10:32:18;;;;;;;47.17;41.88;;;5.00;99.90;;;;;;5060837;28;20545;-69
2023/01/20 10:34:46;;;;;;;47.35;42.38;;;4.90;99.90;;;;;;5064768;28;20047;-69
2023/01/20 10:37:14;;;;;;;45.58;40.55;;;4.70;99.90;;;;;;5046621;28;20055;-69
2023/01/20 10:39:47;;;;;;;45.80;40.85;;;4.20;99.90;;;;;;5064573;28;20118;-69
2023/01/20 10:42:15;;;;;;;47.83;42.97;;;3.90;99.90;;;;;;5063705;28;20040;-69
2023/01/20 10:44:43;;;;;;;67.43;60.08;;;3.30;99.90;;;;;;5060053;28;20422;-68
2023/01/20 10:47:20;;;;;;;50.10;44.60;;;3.00;99.90;;;;;;5053217;28;20046;-69
2023/01/20 10:50:18;;;;;;;50.90;42.88;;;2.90;99.90;;;;;;5064894;28;20418;-68
2023/01/20 10:52:51;;;;;;;54.15;42.15;;;2.80;99.90;;;;;;5050107;28;20040;-68
2023/01/20 10:55:55;;;;;;;61.92;55.92;;;2.70;99.90;;;;;;5066082;28;20056;-68
2023/01/20 10:58:27;;;;;;;54.58;42.10;;;2.50;99.90;;;;;;5065638;28;20166;-68
2023/01/20 11:00:54;;;;;;;48.88;43.53;;;2.50;99.90;;;;;;5066920;28;20139;-68
2023/01/20 11:03:22;;;;;;;51.33;43.40;;;2.50;99.90;;;;;;5064673;28;20387;-68
2023/01/20 11:05:50;;;;;;;116.45;79.80;;;2.50;99.90;;;;;;5066829;28;20400;-71
2023/01/20 11:08:21;;;;;;;128.68;82.90;;;2.50;99.90;;;;;;5048198;28;20178;-68
2023/01/20 11:10:52;;;;;;;84.22;55.40;;;2.60;99.90;;;;;;5057037;28;20086;-68
2023/01/20 11:13:19;;;;;;;70.43;52.78;;;2.70;99.90;;;;;;5045005;28;20033;-68
2023/01/20 11:15:49;;;;;;;88.95;64.57;;;2.70;99.90;;;;;;5068195;28;20044;-68
2023/01/20 11:18:16;;;;;;;122.07;81.18;;;2.70;99.90;;;;;;5049500;28;20609;-68
2023/01/20 11:21:03;;;;;;;212.90;127.32;;;2.60;99.90;;;;;;5057740;28;20525;-71
2023/01/20 11:23:56;;;;;;;96.95;67.03;;;2.50;99.90;;;;;;5063776;28;20174;-71
2023/01/20 11:26:35;;;;;;;67.80;51.40;;;2.50;99.90;;;;;;5041611;28;20413;-70
2023/01/20 11:29:10;;;;;;;55.70;44.90;;;2.40;99.90;;;;;;5067312;28;20040;-67
2023/01/20 11:31:40;;;;;;;194.60;109.70;;;2.30;99.90;;;;;;5063944;28;20429;-68
2023/01/20 11:34:28;;;;;;;387.85;212.57;;;2.20;99.90;;;;;;5067042;28;20213;-68
2023/01/20 11:37:03;;;;;;;159.02;91.55;;;2.10;99.90;;;;;;5065469;28;20750;-70
2023/01/20 11:39:33;;;;;;;223.85;123.68;;;2.00;99.90;;;;;;5045853;28;20176;-68
2023/01/20 11:42:13;;;;;;;132.48;78.45;;;2.00;99.90;;;;;;5053421;28;20054;-70
2023/01/20 11:44:43;;;;;;;385.92;209.68;;;2.10;99.90;;;;;;5040134;28;20072;-68
2023/01/20 11:47:35;;;;;;;168.07;98.53;;;2.10;99.90;;;;;;5054625;28;20046;-68
2023/01/20 11:50:08;;;;;;;57.80;45.53;;;2.20;99.90;;;;;;5052588;28;20094;-68
2023/01/20 11:52:44;;;;;;;56.65;42.55;;;2.20;99.90;;;;;;5045945;28;20068;-67
2023/01/20 11:55:22;;;;;;;150.68;94.57;;;2.30;99.90;;;;;;5062474;28;20392;-68
2023/01/20 11:57:56;;;;;;;72.47;48.70;;;2.40;99.90;;;;;;5061613;28;20052;-68
2023/01/20 12:00:42;;;;;;;143.02;89.80;;;2.50;99.90;;;;;;5048595;28;20040;-68
2023/01/20 12:03:09;;;;;;;63.97;51.00;;;2.60;99.90;;;;;;5064860;28;20131;-68
2023/01/20 12:05:58;;;;;;;46.88;40.60;;;2.70;99.90;;;;;;5042626;28;20065;-68
2023/01/20 12:08:38;;;;;;;50.90;42.33;;;2.60;99.90;;;;;;5058941;28;20531;-68
2023/01/20 12:11:07;;;;;;;45.85;40.83;;;2.70;99.90;;;;;;5063903;28;20036;-68
2023/01/20 12:16:39;;;;;;;62.90;54.33;;;2.60;99.90;;;;;;5057111;28;20441;-68
2023/01/20 12:19:15;;;;;;;69.30;49.33;;;2.50;99.90;;;;;;5039290;28;20051;-68
2023/01/20 12:21:47;;;;;;;47.10;42.13;;;2.60;99.90;;;;;;5063315;28;20123;-71
2023/01/20 12:25:22;;;;;;;48.13;42.67;;;2.80;99.90;;;;;;5061830;28;20139;-68
2023/01/20 12:27:30;;;;;;;;;;;2.80;99.90;;;;;;5041106;28;20040;-68
2023/01/20 12:30:06;;;;;;;47.05;42.10;;;3.00;99.90;;;;;;5055762;28;19931;-71
2023/01/20 12:32:32;;;;;;;76.93;57.42;;;3.30;99.90;;;;;;5065545;28;20044;-68
2023/01/20 12:34:59;;;;;;;52.30;45.55;;;3.50;99.90;;;;;;5050118;28;20059;-71
2023/01/20 12:37:42;;;;;;;59.10;48.00;;;3.70;99.90;;;;;;5063897;28;20127;-68
2023/01/20 12:40:40;;;;;;;50.70;45.50;;;3.90;99.90;;;;;;5063648;28;20226;-71
2023/01/20 12:43:28;;;;;;;48.08;43.53;;;4.30;99.90;;;;;;5059839;28;20051;-68
2023/01/20 12:46:21;;;;;;;48.08;42.92;;;3.50;99.90;;;;;;5049503;28;20256;-71
2023/01/20 12:48:58;;;;;;;49.42;44.22;;;3.50;99.90;;;;;;5057824;28;20040;-68
2023/01/20 12:51:36;;;;;;;49.50;44.70;;;3.60;99.90;;;;;;5065757;28;20068;-68
2023/01/20 12:54:35;;;;;;;45.28;40.90;;;3.40;99.90;;;;;;5046004;28;20032;-68
2023/01/20 12:57:24;;;;;;;49.35;44.13;;;3.00;99.90;;;;;;5058508;28;20408;-69
2023/01/20 13:00:09;;;;;;;46.97;42.28;;;3.20;99.90;;;;;;5045289;28;20123;-68
2023/01/20 13:03:14;;;;;;;45.97;40.50;;;3.40;99.90;;;;;;5062566;28;20072;-68
2023/01/20 13:06:00;;;;;;;58.58;53.47;;;3.40;99.90;;;;;;5064156;28;20037;-68
2023/01/20 13:08:54;;;;;;;61.33;55.75;;;3.30;99.90;;;;;;5059528;28;20047;-70
2023/01/20 13:11:50;;;;;;;56.92;51.40;;;3.10;99.90;;;;;;5062267;28;20037;-70
2023/01/20 13:14:44;;;;;;;53.90;48.55;;;2.60;99.90;;;;;;5059209;28;20044;-68